sensor_id;sensor_type;location;lat;lon;timestamp;P1;durP1;ratioP1;P2;durP2;ratioP2
20629;SDS011;17386;43.846;25.950;2022-12-18T00:01:29;22.58;;;9.38;;
20629;SDS011;17386;43.846;25.950;2022-12-18T00:03:56;21.98;;;9.02;;
20629;SDS011;17386;43.846;25.950;2022-12-18T00:06:22;31.70;;;9.60;;
20629;SDS011;17386;43.846;25.950;2022-12-18T00:08:49;28.08;;;10.20;;
20629;SDS011;17386;43.846;25.950;2022-12-18T00:11:16;25.88;;;10.85;;
20629;SDS011;17386;43.846;25.950;2022-12-18T00:13:43;34.88;;;11.30;;
20629;SDS011;17386;43.846;25.950;2022-12-18T00:16:11;35.38;;;12.10;;
20629;SDS011;17386;43.846;25.950;2022-12-18T00:18:38;28.02;;;10.52;;
20629;SDS011;17386;43.846;25.950;2022-12-18T00:21:05;27.30;;;10.13;;
20629;SDS011;17386;43.846;25.950;2022-12-18T00:23:32;26.30;;;10.75;;
20629;SDS011;17386;43.846;25.950;2022-12-18T00:26:02;28.65;;;11.55;;
20629;SDS011;17386;43.846;25.950;2022-12-18T00:28:29;29.77;;;11.02;;
20629;SDS011;17386;43.846;25.950;2022-12-18T00:31:04;26.08;;;10.48;;
20629;SDS011;17386;43.846;25.950;2022-12-18T00:33:32;28.92;;;12.02;;
20629;SDS011;17386;43.846;25.950;2022-12-18T00:36:04;27.45;;;11.60;;
20629;SDS011;17386;43.846;25.950;2022-12-18T00:38:31;29.38;;;11.73;;
20629;SDS011;17386;43.846;25.950;2022-12-18T00:40:57;24.38;;;10.30;;
20629;SDS011;17386;43.846;25.950;2022-12-18T00:43:23;28.73;;;11.70;;
20629;SDS011;17386;43.846;25.950;2022-12-18T00:45:48;32.28;;;11.77;;
20629;SDS011;17386;43.846;25.950;2022-12-18T00:48:13;30.02;;;10.98;;
20629;SDS011;17386;43.846;25.950;2022-12-18T00:50:39;30.83;;;12.20;;
20629;SDS011;17386;43.846;25.950;2022-12-18T00:53:05;34.47;;;12.00;;
20629;SDS011;17386;43.846;25.950;2022-12-18T00:55:30;29.95;;;11.88;;
20629;SDS011;17386;43.846;25.950;2022-12-18T00:57:55;30.48;;;11.10;;
20629;SDS011;17386;43.846;25.950;2022-12-18T01:00:21;28.42;;;10.70;;
20629;SDS011;17386;43.846;25.950;2022-12-18T01:02:47;27.90;;;11.07;;
20629;SDS011;17386;43.846;25.950;2022-12-18T01:05:13;31.88;;;12.68;;
20629;SDS011;17386;43.846;25.950;2022-12-18T01:07:38;29.00;;;11.73;;
20629;SDS011;17386;43.846;25.950;2022-12-18T01:10:04;27.67;;;10.23;;
20629;SDS011;17386;43.846;25.950;2022-12-18T01:12:32;32.58;;;11.82;;
20629;SDS011;17386;43.846;25.950;2022-12-18T01:14:57;29.50;;;10.57;;
20629;SDS011;17386;43.846;25.950;2022-12-18T01:17:23;30.60;;;11.98;;
20629;SDS011;17386;43.846;25.950;2022-12-18T01:19:48;27.90;;;11.27;;
20629;SDS011;17386;43.846;25.950;2022-12-18T01:22:14;26.15;;;10.35;;
20629;SDS011;17386;43.846;25.950;2022-12-18T01:24:39;29.58;;;10.10;;
20629;SDS011;17386;43.846;25.950;2022-12-18T01:27:05;28.27;;;10.25;;
20629;SDS011;17386;43.846;25.950;2022-12-18T01:29:30;25.98;;;11.02;;
20629;SDS011;17386;43.846;25.950;2022-12-18T01:31:56;29.10;;;11.38;;
20629;SDS011;17386;43.846;25.950;2022-12-18T01:34:22;24.48;;;10.13;;
20629;SDS011;17386;43.846;25.950;2022-12-18T01:36:48;28.95;;;10.82;;
20629;SDS011;17386;43.846;25.950;2022-12-18T01:39:14;27.38;;;10.45;;
20629;SDS011;17386;43.846;25.950;2022-12-18T01:41:40;27.00;;;10.43;;
20629;SDS011;17386;43.846;25.950;2022-12-18T01:47:20;29.02;;;10.25;;
20629;SDS011;17386;43.846;25.950;2022-12-18T01:49:49;22.00;;;9.02;;
20629;SDS011;17386;43.846;25.950;2022-12-18T01:52:15;24.58;;;9.73;;
20629;SDS011;17386;43.846;25.950;2022-12-18T01:54:43;26.00;;;9.07;;
20629;SDS011;17386;43.846;25.950;2022-12-18T01:57:10;26.58;;;10.68;;
20629;SDS011;17386;43.846;25.950;2022-12-18T01:59:36;24.10;;;9.63;;
20629;SDS011;17386;43.846;25.950;2022-12-18T02:02:02;27.33;;;10.93;;
20629;SDS011;17386;43.846;25.950;2022-12-18T02:04:28;21.52;;;9.63;;
20629;SDS011;17386;43.846;25.950;2022-12-18T02:12:19;24.27;;;10.02;;
20629;SDS011;17386;43.846;25.950;2022-12-18T02:17:27;23.13;;;9.32;;
20629;SDS011;17386;43.846;25.950;2022-12-18T02:28:23;25.92;;;10.18;;
20629;SDS011;17386;43.846;25.950;2022-12-18T02:30:53;25.90;;;11.05;;
20629;SDS011;17386;43.846;25.950;2022-12-18T02:33:27;27.30;;;10.02;;
20629;SDS011;17386;43.846;25.950;2022-12-18T02:35:54;24.67;;;9.02;;
20629;SDS011;17386;43.846;25.950;2022-12-18T02:38:23;28.27;;;10.00;;
20629;SDS011;17386;43.846;25.950;2022-12-18T02:40:50;23.50;;;10.35;;
20629;SDS011;17386;43.846;25.950;2022-12-18T02:43:18;26.45;;;9.98;;
20629;SDS011;17386;43.846;25.950;2022-12-18T02:45:52;21.88;;;9.50;;
20629;SDS011;17386;43.846;25.950;2022-12-18T02:48:21;25.10;;;9.85;;
20629;SDS011;17386;43.846;25.950;2022-12-18T02:51:11;28.95;;;10.13;;
20629;SDS011;17386;43.846;25.950;2022-12-18T02:53:50;28.20;;;10.38;;
20629;SDS011;17386;43.846;25.950;2022-12-18T02:56:33;27.23;;;10.35;;
20629;SDS011;17386;43.846;25.950;2022-12-18T02:59:28;32.40;;;10.82;;
20629;SDS011;17386;43.846;25.950;2022-12-18T03:02:21;29.45;;;11.88;;
20629;SDS011;17386;43.846;25.950;2022-12-18T03:07:57;24.67;;;10.70;;
20629;SDS011;17386;43.846;25.950;2022-12-18T03:10:29;33.13;;;12.25;;
20629;SDS011;17386;43.846;25.950;2022-12-18T03:13:00;27.38;;;10.88;;
20629;SDS011;17386;43.846;25.950;2022-12-18T03:15:30;27.75;;;11.85;;
20629;SDS011;17386;43.846;25.950;2022-12-18T03:18:02;30.10;;;11.02;;
20629;SDS011;17386;43.846;25.950;2022-12-18T03:20:33;27.92;;;10.88;;
20629;SDS011;17386;43.846;25.950;2022-12-18T03:23:02;27.25;;;11.75;;
20629;SDS011;17386;43.846;25.950;2022-12-18T03:25:32;34.70;;;12.02;;
20629;SDS011;17386;43.846;25.950;2022-12-18T03:28:02;35.70;;;13.40;;
20629;SDS011;17386;43.846;25.950;2022-12-18T03:30:31;28.52;;;12.52;;
20629;SDS011;17386;43.846;25.950;2022-12-18T03:35:34;30.67;;;11.57;;
20629;SDS011;17386;43.846;25.950;2022-12-18T03:38:04;32.88;;;11.65;;
20629;SDS011;17386;43.846;25.950;2022-12-18T03:40:32;33.75;;;12.77;;
20629;SDS011;17386;43.846;25.950;2022-12-18T03:43:20;30.58;;;11.65;;
20629;SDS011;17386;43.846;25.950;2022-12-18T03:46:01;33.58;;;12.35;;
20629;SDS011;17386;43.846;25.950;2022-12-18T03:48:33;31.98;;;11.27;;
20629;SDS011;17386;43.846;25.950;2022-12-18T03:51:08;34.13;;;12.18;;
20629;SDS011;17386;43.846;25.950;2022-12-18T03:53:42;34.17;;;12.68;;
20629;SDS011;17386;43.846;25.950;2022-12-18T03:56:15;35.50;;;13.15;;
20629;SDS011;17386;43.846;25.950;2022-12-18T03:58:41;35.35;;;13.52;;
20629;SDS011;17386;43.846;25.950;2022-12-18T04:01:09;35.13;;;13.15;;
20629;SDS011;17386;43.846;25.950;2022-12-18T04:03:38;33.50;;;12.85;;
20629;SDS011;17386;43.846;25.950;2022-12-18T04:06:05;32.58;;;11.90;;
20629;SDS011;17386;43.846;25.950;2022-12-18T04:08:32;32.95;;;12.65;;
20629;SDS011;17386;43.846;25.950;2022-12-18T04:10:59;32.05;;;13.15;;
20629;SDS011;17386;43.846;25.950;2022-12-18T04:13:29;33.78;;;12.65;;
20629;SDS011;17386;43.846;25.950;2022-12-18T04:15:57;31.42;;;13.65;;
20629;SDS011;17386;43.846;25.950;2022-12-18T04:18:22;34.20;;;12.75;;
20629;SDS011;17386;43.846;25.950;2022-12-18T04:20:48;34.92;;;13.18;;
20629;SDS011;17386;43.846;25.950;2022-12-18T04:23:13;42.40;;;14.10;;
20629;SDS011;17386;43.846;25.950;2022-12-18T04:25:39;38.47;;;12.82;;
20629;SDS011;17386;43.846;25.950;2022-12-18T04:28:04;32.97;;;12.82;;
20629;SDS011;17386;43.846;25.950;2022-12-18T04:30:30;39.45;;;14.20;;
20629;SDS011;17386;43.846;25.950;2022-12-18T04:32:55;40.90;;;13.90;;
20629;SDS011;17386;43.846;25.950;2022-12-18T04:35:20;39.92;;;13.80;;
20629;SDS011;17386;43.846;25.950;2022-12-18T04:37:46;37.47;;;13.82;;
20629;SDS011;17386;43.846;25.950;2022-12-18T04:40:11;34.17;;;15.02;;
20629;SDS011;17386;43.846;25.950;2022-12-18T04:42:38;35.83;;;13.07;;
20629;SDS011;17386;43.846;25.950;2022-12-18T04:45:05;36.88;;;14.05;;
20629;SDS011;17386;43.846;25.950;2022-12-18T04:47:31;40.58;;;14.48;;
20629;SDS011;17386;43.846;25.950;2022-12-18T04:49:57;38.17;;;13.38;;
20629;SDS011;17386;43.846;25.950;2022-12-18T04:52:22;37.78;;;12.55;;
20629;SDS011;17386;43.846;25.950;2022-12-18T04:54:48;41.22;;;14.02;;
20629;SDS011;17386;43.846;25.950;2022-12-18T04:57:13;34.58;;;12.45;;
20629;SDS011;17386;43.846;25.950;2022-12-18T04:59:38;37.80;;;12.90;;
20629;SDS011;17386;43.846;25.950;2022-12-18T05:02:04;40.05;;;13.18;;
20629;SDS011;17386;43.846;25.950;2022-12-18T05:04:29;40.20;;;14.32;;
20629;SDS011;17386;43.846;25.950;2022-12-18T05:06:55;35.13;;;12.77;;
20629;SDS011;17386;43.846;25.950;2022-12-18T05:09:20;44.97;;;14.93;;
20629;SDS011;17386;43.846;25.950;2022-12-18T05:11:45;39.83;;;14.23;;
20629;SDS011;17386;43.846;25.950;2022-12-18T05:14:11;42.65;;;14.48;;
20629;SDS011;17386;43.846;25.950;2022-12-18T05:16:37;38.17;;;14.23;;
20629;SDS011;17386;43.846;25.950;2022-12-18T05:19:02;37.17;;;13.95;;
20629;SDS011;17386;43.846;25.950;2022-12-18T05:21:28;37.55;;;14.70;;
20629;SDS011;17386;43.846;25.950;2022-12-18T05:23:53;39.17;;;13.57;;
20629;SDS011;17386;43.846;25.950;2022-12-18T05:26:19;38.13;;;13.75;;
20629;SDS011;17386;43.846;25.950;2022-12-18T05:28:44;39.63;;;13.50;;
20629;SDS011;17386;43.846;25.950;2022-12-18T05:31:10;35.50;;;13.85;;
20629;SDS011;17386;43.846;25.950;2022-12-18T05:33:36;40.92;;;14.43;;
20629;SDS011;17386;43.846;25.950;2022-12-18T05:36:02;43.67;;;14.40;;
20629;SDS011;17386;43.846;25.950;2022-12-18T05:38:30;36.25;;;14.15;;
20629;SDS011;17386;43.846;25.950;2022-12-18T05:40:57;39.95;;;13.43;;
20629;SDS011;17386;43.846;25.950;2022-12-18T05:43:23;40.92;;;14.38;;
20629;SDS011;17386;43.846;25.950;2022-12-18T05:45:51;42.33;;;14.77;;
20629;SDS011;17386;43.846;25.950;2022-12-18T05:48:17;42.03;;;14.13;;
20629;SDS011;17386;43.846;25.950;2022-12-18T05:50:43;41.92;;;14.82;;
20629;SDS011;17386;43.846;25.950;2022-12-18T05:53:10;42.60;;;14.00;;
20629;SDS011;17386;43.846;25.950;2022-12-18T05:55:36;35.88;;;12.98;;
20629;SDS011;17386;43.846;25.950;2022-12-18T05:58:04;41.45;;;14.23;;
20629;SDS011;17386;43.846;25.950;2022-12-18T06:00:31;42.17;;;15.20;;
20629;SDS011;17386;43.846;25.950;2022-12-18T06:02:57;42.08;;;16.13;;
20629;SDS011;17386;43.846;25.950;2022-12-18T06:05:24;42.95;;;15.00;;
20629;SDS011;17386;43.846;25.950;2022-12-18T06:07:49;36.80;;;13.30;;
20629;SDS011;17386;43.846;25.950;2022-12-18T06:10:14;42.92;;;15.00;;
20629;SDS011;17386;43.846;25.950;2022-12-18T06:12:40;44.00;;;13.98;;
20629;SDS011;17386;43.846;25.950;2022-12-18T06:15:05;40.88;;;14.15;;
20629;SDS011;17386;43.846;25.950;2022-12-18T06:17:31;39.13;;;14.43;;
20629;SDS011;17386;43.846;25.950;2022-12-18T06:19:59;37.70;;;14.55;;
20629;SDS011;17386;43.846;25.950;2022-12-18T06:22:26;39.63;;;13.00;;
20629;SDS011;17386;43.846;25.950;2022-12-18T06:24:52;42.50;;;14.60;;
20629;SDS011;17386;43.846;25.950;2022-12-18T06:27:17;40.20;;;14.82;;
20629;SDS011;17386;43.846;25.950;2022-12-18T06:29:43;34.67;;;13.60;;
20629;SDS011;17386;43.846;25.950;2022-12-18T06:32:08;47.45;;;14.75;;
20629;SDS011;17386;43.846;25.950;2022-12-18T06:34:34;31.40;;;13.00;;
20629;SDS011;17386;43.846;25.950;2022-12-18T06:39:27;39.87;;;14.27;;
20629;SDS011;17386;43.846;25.950;2022-12-18T06:41:53;42.85;;;14.90;;
20629;SDS011;17386;43.846;25.950;2022-12-18T06:44:18;37.97;;;14.32;;
20629;SDS011;17386;43.846;25.950;2022-12-18T06:46:43;38.65;;;14.43;;
20629;SDS011;17386;43.846;25.950;2022-12-18T06:49:09;43.65;;;14.90;;
20629;SDS011;17386;43.846;25.950;2022-12-18T06:51:35;43.22;;;15.82;;
20629;SDS011;17386;43.846;25.950;2022-12-18T06:54:00;39.30;;;14.70;;
20629;SDS011;17386;43.846;25.950;2022-12-18T06:56:26;39.83;;;14.15;;
20629;SDS011;17386;43.846;25.950;2022-12-18T06:58:52;34.10;;;14.90;;
20629;SDS011;17386;43.846;25.950;2022-12-18T07:01:17;41.15;;;14.23;;
20629;SDS011;17386;43.846;25.950;2022-12-18T07:03:43;43.42;;;15.45;;
20629;SDS011;17386;43.846;25.950;2022-12-18T07:06:18;43.35;;;14.68;;
20629;SDS011;17386;43.846;25.950;2022-12-18T07:08:45;36.63;;;14.48;;
20629;SDS011;17386;43.846;25.950;2022-12-18T07:11:11;41.50;;;15.23;;
20629;SDS011;17386;43.846;25.950;2022-12-18T07:13:38;37.03;;;13.98;;
20629;SDS011;17386;43.846;25.950;2022-12-18T07:16:21;42.60;;;14.98;;
20629;SDS011;17386;43.846;25.950;2022-12-18T07:18:47;36.15;;;13.32;;
20629;SDS011;17386;43.846;25.950;2022-12-18T07:21:14;36.58;;;12.70;;
20629;SDS011;17386;43.846;25.950;2022-12-18T07:23:42;37.72;;;14.55;;
20629;SDS011;17386;43.846;25.950;2022-12-18T07:26:09;40.17;;;13.40;;
20629;SDS011;17386;43.846;25.950;2022-12-18T07:28:36;40.63;;;14.70;;
20629;SDS011;17386;43.846;25.950;2022-12-18T07:31:06;42.70;;;14.48;;
20629;SDS011;17386;43.846;25.950;2022-12-18T07:33:34;41.17;;;14.60;;
20629;SDS011;17386;43.846;25.950;2022-12-18T07:36:00;37.33;;;13.80;;
20629;SDS011;17386;43.846;25.950;2022-12-18T07:38:26;34.90;;;13.35;;
20629;SDS011;17386;43.846;25.950;2022-12-18T07:40:52;38.80;;;14.15;;
20629;SDS011;17386;43.846;25.950;2022-12-18T07:43:17;36.28;;;14.20;;
20629;SDS011;17386;43.846;25.950;2022-12-18T07:45:43;40.85;;;14.23;;
20629;SDS011;17386;43.846;25.950;2022-12-18T07:48:08;41.00;;;13.75;;
20629;SDS011;17386;43.846;25.950;2022-12-18T07:50:34;41.15;;;15.25;;
20629;SDS011;17386;43.846;25.950;2022-12-18T07:53:00;41.42;;;15.15;;
20629;SDS011;17386;43.846;25.950;2022-12-18T07:55:28;37.17;;;13.13;;
20629;SDS011;17386;43.846;25.950;2022-12-18T07:57:55;37.63;;;14.25;;
20629;SDS011;17386;43.846;25.950;2022-12-18T08:00:20;37.33;;;15.30;;
20629;SDS011;17386;43.846;25.950;2022-12-18T08:02:46;36.65;;;14.40;;
20629;SDS011;17386;43.846;25.950;2022-12-18T08:05:11;39.20;;;14.05;;
20629;SDS011;17386;43.846;25.950;2022-12-18T08:07:38;36.60;;;14.02;;
20629;SDS011;17386;43.846;25.950;2022-12-18T08:10:03;40.30;;;14.68;;
20629;SDS011;17386;43.846;25.950;2022-12-18T08:12:29;36.08;;;13.40;;
20629;SDS011;17386;43.846;25.950;2022-12-18T08:14:54;36.17;;;13.13;;
20629;SDS011;17386;43.846;25.950;2022-12-18T08:17:20;35.95;;;13.95;;
20629;SDS011;17386;43.846;25.950;2022-12-18T08:19:45;40.95;;;14.38;;
20629;SDS011;17386;43.846;25.950;2022-12-18T08:22:10;40.65;;;14.75;;
20629;SDS011;17386;43.846;25.950;2022-12-18T08:24:36;34.60;;;13.90;;
20629;SDS011;17386;43.846;25.950;2022-12-18T08:27:01;34.10;;;12.32;;
20629;SDS011;17386;43.846;25.950;2022-12-18T08:29:27;34.83;;;12.45;;
20629;SDS011;17386;43.846;25.950;2022-12-18T08:31:52;35.45;;;13.43;;
20629;SDS011;17386;43.846;25.950;2022-12-18T08:34:17;38.03;;;14.77;;
20629;SDS011;17386;43.846;25.950;2022-12-18T08:36:43;40.25;;;14.68;;
20629;SDS011;17386;43.846;25.950;2022-12-18T08:39:08;35.63;;;13.70;;
20629;SDS011;17386;43.846;25.950;2022-12-18T08:41:34;32.80;;;12.02;;
20629;SDS011;17386;43.846;25.950;2022-12-18T08:43:59;31.02;;;11.65;;
20629;SDS011;17386;43.846;25.950;2022-12-18T08:46:43;29.40;;;12.13;;
20629;SDS011;17386;43.846;25.950;2022-12-18T08:49:09;27.88;;;11.18;;
20629;SDS011;17386;43.846;25.950;2022-12-18T08:51:36;32.40;;;11.48;;
20629;SDS011;17386;43.846;25.950;2022-12-18T08:54:02;36.63;;;13.48;;
20629;SDS011;17386;43.846;25.950;2022-12-18T08:56:29;32.45;;;13.85;;
20629;SDS011;17386;43.846;25.950;2022-12-18T08:58:55;36.08;;;12.95;;
20629;SDS011;17386;43.846;25.950;2022-12-18T09:01:20;29.38;;;11.52;;
20629;SDS011;17386;43.846;25.950;2022-12-18T09:03:46;34.15;;;13.68;;
20629;SDS011;17386;43.846;25.950;2022-12-18T09:06:13;35.20;;;13.20;;
20629;SDS011;17386;43.846;25.950;2022-12-18T09:08:41;30.60;;;12.20;;
20629;SDS011;17386;43.846;25.950;2022-12-18T09:11:14;30.05;;;11.75;;
20629;SDS011;17386;43.846;25.950;2022-12-18T09:13:44;31.58;;;12.27;;
20629;SDS011;17386;43.846;25.950;2022-12-18T09:16:10;37.88;;;12.93;;
20629;SDS011;17386;43.846;25.950;2022-12-18T09:18:35;31.73;;;11.88;;
20629;SDS011;17386;43.846;25.950;2022-12-18T09:21:07;34.08;;;14.25;;
20629;SDS011;17386;43.846;25.950;2022-12-18T09:23:34;37.88;;;14.02;;
20629;SDS011;17386;43.846;25.950;2022-12-18T09:25:59;35.85;;;12.57;;
20629;SDS011;17386;43.846;25.950;2022-12-18T09:28:26;39.08;;;13.43;;
20629;SDS011;17386;43.846;25.950;2022-12-18T09:30:52;35.85;;;13.50;;
20629;SDS011;17386;43.846;25.950;2022-12-18T09:33:17;34.33;;;12.77;;
20629;SDS011;17386;43.846;25.950;2022-12-18T09:35:43;35.65;;;13.25;;
20629;SDS011;17386;43.846;25.950;2022-12-18T09:38:11;36.13;;;13.27;;
20629;SDS011;17386;43.846;25.950;2022-12-18T09:40:41;31.90;;;11.80;;
20629;SDS011;17386;43.846;25.950;2022-12-18T09:43:13;32.95;;;12.10;;
20629;SDS011;17386;43.846;25.950;2022-12-18T09:45:44;38.72;;;13.82;;
20629;SDS011;17386;43.846;25.950;2022-12-18T09:48:18;32.80;;;12.50;;
20629;SDS011;17386;43.846;25.950;2022-12-18T09:50:48;32.72;;;12.68;;
20629;SDS011;17386;43.846;25.950;2022-12-18T09:53:16;34.30;;;14.10;;
20629;SDS011;17386;43.846;25.950;2022-12-18T09:55:45;37.03;;;12.98;;
20629;SDS011;17386;43.846;25.950;2022-12-18T09:58:18;34.22;;;13.05;;
20629;SDS011;17386;43.846;25.950;2022-12-18T10:00:52;33.53;;;12.68;;
20629;SDS011;17386;43.846;25.950;2022-12-18T10:03:18;29.73;;;10.82;;
20629;SDS011;17386;43.846;25.950;2022-12-18T10:14:25;37.35;;;14.25;;
20629;SDS011;17386;43.846;25.950;2022-12-18T10:25:34;35.25;;;12.98;;
20629;SDS011;17386;43.846;25.950;2022-12-18T10:28:13;31.75;;;12.65;;
20629;SDS011;17386;43.846;25.950;2022-12-18T10:30:40;39.03;;;12.52;;
20629;SDS011;17386;43.846;25.950;2022-12-18T10:33:13;34.90;;;12.68;;
20629;SDS011;17386;43.846;25.950;2022-12-18T10:38:20;40.90;;;12.32;;
20629;SDS011;17386;43.846;25.950;2022-12-18T10:43:23;39.90;;;13.45;;
20629;SDS011;17386;43.846;25.950;2022-12-18T10:48:54;34.58;;;13.48;;
20629;SDS011;17386;43.846;25.950;2022-12-18T10:51:30;37.42;;;13.27;;
20629;SDS011;17386;43.846;25.950;2022-12-18T10:59:03;33.78;;;12.50;;
20629;SDS011;17386;43.846;25.950;2022-12-18T11:06:54;36.45;;;13.40;;
20629;SDS011;17386;43.846;25.950;2022-12-18T11:09:31;34.97;;;12.68;;
20629;SDS011;17386;43.846;25.950;2022-12-18T11:11:58;41.50;;;13.80;;
20629;SDS011;17386;43.846;25.950;2022-12-18T11:14:30;37.88;;;13.85;;
20629;SDS011;17386;43.846;25.950;2022-12-18T11:16:59;35.63;;;13.43;;
20629;SDS011;17386;43.846;25.950;2022-12-18T11:19:35;36.50;;;13.13;;
20629;SDS011;17386;43.846;25.950;2022-12-18T11:22:23;31.75;;;13.10;;
20629;SDS011;17386;43.846;25.950;2022-12-18T11:25:01;38.00;;;14.43;;
20629;SDS011;17386;43.846;25.950;2022-12-18T11:27:30;37.60;;;13.90;;
20629;SDS011;17386;43.846;25.950;2022-12-18T11:32:49;37.20;;;13.35;;
20629;SDS011;17386;43.846;25.950;2022-12-18T11:35:20;38.28;;;13.63;;
20629;SDS011;17386;43.846;25.950;2022-12-18T11:38:28;35.88;;;13.55;;
20629;SDS011;17386;43.846;25.950;2022-12-18T11:44:09;33.00;;;13.05;;
20629;SDS011;17386;43.846;25.950;2022-12-18T11:46:41;34.45;;;12.52;;
20629;SDS011;17386;43.846;25.950;2022-12-18T11:49:15;32.85;;;12.70;;
20629;SDS011;17386;43.846;25.950;2022-12-18T11:51:50;37.08;;;14.05;;
20629;SDS011;17386;43.846;25.950;2022-12-18T11:54:21;32.42;;;12.13;;
20629;SDS011;17386;43.846;25.950;2022-12-18T11:56:48;35.45;;;13.07;;
20629;SDS011;17386;43.846;25.950;2022-12-18T12:05:28;36.75;;;13.68;;
20629;SDS011;17386;43.846;25.950;2022-12-18T12:08:15;35.72;;;13.35;;
20629;SDS011;17386;43.846;25.950;2022-12-18T12:13:39;37.05;;;13.30;;
20629;SDS011;17386;43.846;25.950;2022-12-18T12:16:22;38.10;;;13.88;;
20629;SDS011;17386;43.846;25.950;2022-12-18T12:18:56;41.80;;;13.52;;
20629;SDS011;17386;43.846;25.950;2022-12-18T12:21:43;36.78;;;13.82;;
20629;SDS011;17386;43.846;25.950;2022-12-18T12:35:47;34.42;;;14.10;;
20629;SDS011;17386;43.846;25.950;2022-12-18T12:38:34;40.65;;;14.55;;
20629;SDS011;17386;43.846;25.950;2022-12-18T12:41:06;41.22;;;15.75;;
20629;SDS011;17386;43.846;25.950;2022-12-18T12:43:58;39.63;;;14.43;;
20629;SDS011;17386;43.846;25.950;2022-12-18T12:46:26;38.13;;;14.38;;
20629;SDS011;17386;43.846;25.950;2022-12-18T12:48:56;38.38;;;14.45;;
20629;SDS011;17386;43.846;25.950;2022-12-18T12:51:27;37.33;;;13.77;;
20629;SDS011;17386;43.846;25.950;2022-12-18T12:53:56;32.42;;;13.40;;
20629;SDS011;17386;43.846;25.950;2022-12-18T12:59:55;39.58;;;14.88;;
20629;SDS011;17386;43.846;25.950;2022-12-18T13:04:27;35.08;;;14.43;;
20629;SDS011;17386;43.846;25.950;2022-12-18T13:07:03;39.03;;;15.90;;
20629;SDS011;17386;43.846;25.950;2022-12-18T13:10:10;41.60;;;15.02;;
20629;SDS011;17386;43.846;25.950;2022-12-18T13:15:23;45.60;;;17.25;;
20629;SDS011;17386;43.846;25.950;2022-12-18T13:17:48;39.65;;;14.98;;
20629;SDS011;17386;43.846;25.950;2022-12-18T13:20:14;37.08;;;14.85;;
20629;SDS011;17386;43.846;25.950;2022-12-18T13:22:44;46.60;;;16.52;;
20629;SDS011;17386;43.846;25.950;2022-12-18T13:36:04;46.92;;;17.33;;
20629;SDS011;17386;43.846;25.950;2022-12-18T13:39:11;46.45;;;16.95;;
20629;SDS011;17386;43.846;25.950;2022-12-18T13:44:36;50.45;;;18.67;;
20629;SDS011;17386;43.846;25.950;2022-12-18T13:47:26;49.08;;;17.45;;
20629;SDS011;17386;43.846;25.950;2022-12-18T13:49:57;42.80;;;17.17;;
20629;SDS011;17386;43.846;25.950;2022-12-18T13:52:26;39.75;;;15.82;;
20629;SDS011;17386;43.846;25.950;2022-12-18T13:54:58;46.20;;;16.92;;
20629;SDS011;17386;43.846;25.950;2022-12-18T13:59:59;41.65;;;15.07;;
20629;SDS011;17386;43.846;25.950;2022-12-18T14:02:48;39.28;;;17.10;;
20629;SDS011;17386;43.846;25.950;2022-12-18T14:05:28;42.55;;;17.15;;
20629;SDS011;17386;43.846;25.950;2022-12-18T14:08:04;42.10;;;16.55;;
20629;SDS011;17386;43.846;25.950;2022-12-18T14:10:31;52.42;;;19.70;;
20629;SDS011;17386;43.846;25.950;2022-12-18T14:12:58;43.13;;;16.85;;
20629;SDS011;17386;43.846;25.950;2022-12-18T14:18:02;44.72;;;17.73;;
20629;SDS011;17386;43.846;25.950;2022-12-18T14:20:39;46.45;;;16.33;;
20629;SDS011;17386;43.846;25.950;2022-12-18T14:23:24;43.90;;;16.58;;
20629;SDS011;17386;43.846;25.950;2022-12-18T14:25:53;47.90;;;16.77;;
20629;SDS011;17386;43.846;25.950;2022-12-18T14:28:19;51.35;;;19.30;;
20629;SDS011;17386;43.846;25.950;2022-12-18T14:30:46;44.90;;;18.15;;
20629;SDS011;17386;43.846;25.950;2022-12-18T14:33:30;49.50;;;17.25;;
20629;SDS011;17386;43.846;25.950;2022-12-18T14:36:00;50.35;;;18.80;;
20629;SDS011;17386;43.846;25.950;2022-12-18T14:40:59;47.42;;;18.45;;
20629;SDS011;17386;43.846;25.950;2022-12-18T14:43:27;51.10;;;18.52;;
20629;SDS011;17386;43.846;25.950;2022-12-18T14:45:54;55.85;;;21.70;;
20629;SDS011;17386;43.846;25.950;2022-12-18T14:48:31;56.08;;;20.08;;
20629;SDS011;17386;43.846;25.950;2022-12-18T14:51:24;55.33;;;19.60;;
20629;SDS011;17386;43.846;25.950;2022-12-18T14:53:55;52.90;;;21.85;;
20629;SDS011;17386;43.846;25.950;2022-12-18T14:56:43;55.05;;;23.17;;
20629;SDS011;17386;43.846;25.950;2022-12-18T14:59:15;56.95;;;21.75;;
20629;SDS011;17386;43.846;25.950;2022-12-18T15:01:46;47.67;;;19.10;;
20629;SDS011;17386;43.846;25.950;2022-12-18T15:04:29;47.83;;;17.67;;
20629;SDS011;17386;43.846;25.950;2022-12-18T15:07:17;46.83;;;17.92;;
20629;SDS011;17386;43.846;25.950;2022-12-18T15:12:33;42.35;;;16.08;;
20629;SDS011;17386;43.846;25.950;2022-12-18T15:15:00;46.00;;;16.80;;
20629;SDS011;17386;43.846;25.950;2022-12-18T15:17:25;49.58;;;17.77;;
20629;SDS011;17386;43.846;25.950;2022-12-18T15:19:53;43.90;;;15.40;;
20629;SDS011;17386;43.846;25.950;2022-12-18T15:22:28;38.85;;;15.20;;
20629;SDS011;17386;43.846;25.950;2022-12-18T15:24:58;45.58;;;16.58;;
20629;SDS011;17386;43.846;25.950;2022-12-18T15:27:27;43.78;;;16.38;;
20629;SDS011;17386;43.846;25.950;2022-12-18T15:32:33;45.20;;;16.70;;
20629;SDS011;17386;43.846;25.950;2022-12-18T15:37:40;40.67;;;15.52;;
20629;SDS011;17386;43.846;25.950;2022-12-18T15:40:06;43.83;;;16.50;;
20629;SDS011;17386;43.846;25.950;2022-12-18T15:42:36;44.97;;;17.17;;
20629;SDS011;17386;43.846;25.950;2022-12-18T15:45:20;49.63;;;19.48;;
20629;SDS011;17386;43.846;25.950;2022-12-18T15:47:46;54.50;;;19.40;;
20629;SDS011;17386;43.846;25.950;2022-12-18T15:50:11;55.72;;;20.77;;
20629;SDS011;17386;43.846;25.950;2022-12-18T15:52:43;53.33;;;18.65;;
20629;SDS011;17386;43.846;25.950;2022-12-18T15:55:14;54.08;;;18.45;;
20629;SDS011;17386;43.846;25.950;2022-12-18T15:58:11;51.88;;;18.90;;
20629;SDS011;17386;43.846;25.950;2022-12-18T16:00:37;52.13;;;19.45;;
20629;SDS011;17386;43.846;25.950;2022-12-18T16:03:04;58.08;;;21.25;;
20629;SDS011;17386;43.846;25.950;2022-12-18T16:05:31;55.83;;;18.63;;
20629;SDS011;17386;43.846;25.950;2022-12-18T16:07:57;59.28;;;20.45;;
20629;SDS011;17386;43.846;25.950;2022-12-18T16:10:23;51.30;;;18.15;;
20629;SDS011;17386;43.846;25.950;2022-12-18T16:12:49;60.85;;;22.77;;
20629;SDS011;17386;43.846;25.950;2022-12-18T16:15:15;59.75;;;20.88;;
20629;SDS011;17386;43.846;25.950;2022-12-18T16:17:41;58.95;;;20.77;;
20629;SDS011;17386;43.846;25.950;2022-12-18T16:20:11;60.20;;;19.70;;
20629;SDS011;17386;43.846;25.950;2022-12-18T16:22:40;56.72;;;21.63;;
20629;SDS011;17386;43.846;25.950;2022-12-18T16:25:05;58.42;;;21.52;;
20629;SDS011;17386;43.846;25.950;2022-12-18T16:27:31;61.10;;;21.45;;
20629;SDS011;17386;43.846;25.950;2022-12-18T16:29:56;64.40;;;20.33;;